Time;durP1;ratioP1;P1;durP2;ratioP2;P2;SDS_P1;SDS_P2;PMS_P1;PMS_P2;Temp;Humidity;BMP_temperature;BMP_pressure;BME280_temperature;BME280_humidity;BME280_pressure;Samples;Min_cycle;Max_cycle;Signal;HPM_P1;HPM_P2
2021/11/17 02:28:12;;;;;;;83.25;46.63;;;4.30;99.90;;;;;;5017625;28;20190;-90
2021/11/17 02:31:22;;;;;;;78.28;45.85;;;4.20;99.90;;;;;;5000496;28;20651;-90
2021/11/17 02:33:51;;;;;;;89.85;51.40;;;4.20;99.90;;;;;;5019553;28;20635;-91
2021/11/17 02:36:16;;;;;;;86.45;49.75;;;4.20;99.90;;;;;;5034447;28;20249;-90
2021/11/17 02:38:45;;;;;;;90.93;52.23;;;4.20;99.90;;;;;;5033634;28;20187;-90
2021/11/17 02:41:22;;;;;;;87.90;49.05;;;4.20;99.90;;;;;;5033417;28;20253;-92
2021/11/17 02:44:14;;;;;;;98.63;53.65;;;4.10;99.90;;;;;;5033659;28;20639;-91
2021/11/17 02:47:06;;;;;;;89.78;50.28;;;4.10;99.90;;;;;;5001087;28;20207;-90
2021/11/17 02:49:43;;;;;;;93.47;54.22;;;4.10;99.90;;;;;;5021227;28;20174;-91
2021/11/17 02:52:41;;;;;;;87.47;51.90;;;4.10;99.90;;;;;;5046212;28;20198;-91
2021/11/17 02:55:34;;;;;;;85.45;50.00;;;4.10;99.90;;;;;;5010525;28;20301;-90
2021/11/17 02:58:29;;;;;;;85.05;50.22;;;4.10;99.90;;;;;;5017047;28;20210;-91
2021/11/17 03:01:05;;;;;;;77.32;45.47;;;4.10;99.90;;;;;;5019508;28;20167;-90
2021/11/17 03:03:55;;;;;;;86.65;51.65;;;4.00;99.90;;;;;;5034587;28;20182;-92
2021/11/17 03:06:43;;;;;;;88.82;48.60;;;4.00;99.90;;;;;;5000145;28;20250;-90
2021/11/17 03:09:54;;;;;;;81.03;49.42;;;3.90;99.90;;;;;;5000500;28;20269;-91
2021/11/17 03:12:42;;;;;;;83.53;50.30;;;3.90;99.90;;;;;;5016698;28;20198;-92
2021/11/17 03:15:22;;;;;;;86.28;51.13;;;3.90;99.90;;;;;;5033258;28;20655;-92
2021/11/17 03:18:00;;;;;;;99.18;54.03;;;3.90;99.90;;;;;;5033852;28;20226;-92
2021/11/17 03:20:55;;;;;;;93.35;56.25;;;3.90;99.90;;;;;;5016706;28;20265;-89
2021/11/17 03:23:59;;;;;;;91.32;53.70;;;3.90;99.90;;;;;;5027884;28;20187;-90
2021/11/17 03:26:52;;;;;;;82.22;46.05;;;3.90;99.90;;;;;;5019527;28;20225;-90
2021/11/17 03:29:27;;;;;;;77.70;47.35;;;3.90;99.90;;;;;;5042084;28;20179;-90
2021/11/17 03:32:33;;;;;;;78.90;48.83;;;3.80;99.90;;;;;;5038083;28;20197;-91
2021/11/17 03:35:13;;;;;;;77.53;48.33;;;3.80;99.90;;;;;;5039215;28;20178;-91
2021/11/17 03:38:11;;;;;;;80.28;46.03;;;3.80;99.90;;;;;;5037380;28;20198;-90
2021/11/17 03:41:11;;;;;;;75.57;45.78;;;3.80;99.90;;;;;;5003864;28;20274;-90
2021/11/17 03:44:08;;;;;;;71.50;46.08;;;3.80;99.90;;;;;;5003482;28;20644;-92
2021/11/17 03:47:12;;;;;;;82.53;50.00;;;3.70;99.90;;;;;;5036301;28;20238;-90
2021/11/17 03:49:59;;;;;;;78.25;47.63;;;3.80;99.90;;;;;;4995719;28;20191;-92
2021/11/17 03:52:36;;;;;;;85.03;46.15;;;3.80;99.90;;;;;;5036122;28;20206;-90
2021/11/17 03:55:25;;;;;;;80.47;47.40;;;3.70;99.90;;;;;;5037768;28;20186;-90
2021/11/17 03:58:28;;;;;;;73.72;45.00;;;3.70;99.90;;;;;;5020111;28;20277;-90
2021/11/17 04:01:22;;;;;;;75.30;46.78;;;3.70;99.90;;;;;;5037432;28;20549;-90
2021/11/17 04:04:14;;;;;;;85.10;48.13;;;3.60;99.90;;;;;;5022225;28;20202;-92
2021/11/17 04:07:05;;;;;;;86.55;49.20;;;3.60;99.90;;;;;;5030599;28;20225;-90
2021/11/17 04:09:51;;;;;;;104.05;56.80;;;3.60;99.90;;;;;;5026051;28;20214;-89
2021/11/17 04:12:16;;;;;;;95.38;53.45;;;3.60;99.90;;;;;;5002797;28;20209;-91
2021/11/17 04:14:48;;;;;;;79.13;46.50;;;3.70;99.90;;;;;;5036032;28;20178;-92
2021/11/17 04:17:39;;;;;;;74.78;44.47;;;3.80;99.90;;;;;;5038141;28;20233;-90
2021/11/17 04:20:35;;;;;;;68.88;41.60;;;3.80;99.90;;;;;;5041647;28;20179;-90
2021/11/17 04:23:15;;;;;;;84.32;47.45;;;3.80;99.90;;;;;;5036402;28;20206;-90
2021/11/17 04:26:35;;;;;;;77.43;43.30;;;3.90;99.90;;;;;;5035765;28;20202;-90
2021/11/17 04:29:15;;;;;;;75.75;45.22;;;3.90;99.90;;;;;;5014846;28;20549;-91
2021/11/17 04:32:03;;;;;;;83.72;47.90;;;3.90;99.90;;;;;;5036199;28;20190;-91
2021/11/17 04:34:36;;;;;;;78.72;42.38;;;4.00;99.90;;;;;;5035512;28;20647;-90
2021/11/17 04:37:30;;;;;;;76.30;44.30;;;4.00;99.90;;;;;;5018902;28;20195;-91
2021/11/17 04:40:41;;;;;;;78.68;43.65;;;4.10;99.90;;;;;;5021903;28;20171;-91
2021/11/17 04:43:28;;;;;;;75.57;43.70;;;4.10;99.90;;;;;;5009526;28;20261;-90
2021/11/17 04:46:18;;;;;;;82.22;44.55;;;4.10;99.90;;;;;;5034857;28;20206;-90
2021/11/17 04:49:00;;;;;;;72.93;40.53;;;4.10;99.90;;;;;;5019729;28;20719;-90
2021/11/17 04:51:46;;;;;;;79.78;43.08;;;4.10;99.90;;;;;;5022340;28;20221;-90
2021/11/17 04:54:49;;;;;;;95.18;48.28;;;4.10;99.90;;;;;;5038503;28;20259;-91
2021/11/17 04:57:28;;;;;;;79.65;45.83;;;4.10;99.90;;;;;;5038137;28;20296;-91
2021/11/17 05:00:28;;;;;;;115.03;55.67;;;4.10;99.90;;;;;;5022003;28;20631;-91
2021/11/17 05:03:03;;;;;;;64.85;38.58;;;4.10;99.90;;;;;;5038110;28;20694;-90
2021/11/17 05:05:43;;;;;;;62.08;38.30;;;4.00;99.90;;;;;;5022012;28;20205;-91
2021/11/17 05:08:38;;;;;;;51.85;33.85;;;4.00;99.90;;;;;;5037913;28;20198;-91
2021/11/17 05:11:10;;;;;;;56.22;34.15;;;3.90;99.90;;;;;;5015288;28;20202;-90
2021/11/17 05:13:56;;;;;;;51.10;31.67;;;3.90;99.90;;;;;;5030426;28;20178;-91
2021/11/17 05:16:37;;;;;;;107.80;55.40;;;4.00;99.90;;;;;;5026078;28;20235;-91
2021/11/17 05:19:34;;;;;;;122.18;57.50;;;4.10;99.90;;;;;;5023519;28;20281;-91
2021/11/17 05:22:24;;;;;;;123.10;58.45;;;4.20;99.90;;;;;;5042857;28;20237;-89
2021/11/17 05:25:31;;;;;;;125.22;56.75;;;4.30;99.90;;;;;;5028910;28;20676;-91
2021/11/17 05:28:07;;;;;;;161.63;76.68;;;4.30;99.90;;;;;;5037500;28;20263;-91
2021/11/17 05:30:51;;;;;;;53.08;33.80;;;4.20;99.90;;;;;;5032544;28;20182;-92
2021/11/17 05:33:45;;;;;;;50.80;32.00;;;4.10;99.90;;;;;;5033669;28;20642;-91
2021/11/17 05:36:23;;;;;;;52.03;32.45;;;4.00;99.90;;;;;;5033427;28;20206;-91
2021/11/17 05:39:14;;;;;;;53.17;33.13;;;3.90;99.90;;;;;;5033531;28;20170;-92
2021/11/17 05:41:49;;;;;;;53.78;34.03;;;3.80;99.90;;;;;;5017423;28;20668;-90
2021/11/17 05:44:31;;;;;;;57.97;34.95;;;3.70;99.90;;;;;;5023845;28;20173;-90
2021/11/17 05:47:21;;;;;;;65.43;35.35;;;3.50;99.90;;;;;;5021143;28;20214;-91
2021/11/17 05:50:14;;;;;;;80.72;36.13;;;3.40;99.90;;;;;;5027134;28;20193;-90
2021/11/17 05:52:42;;;;;;;79.80;35.72;;;3.30;99.90;;;;;;5031483;28;20210;-91
2021/11/17 05:55:15;;;;;;;71.65;37.70;;;3.20;99.90;;;;;;5032648;28;20188;-90
2021/11/17 05:57:59;;;;;;;71.15;39.33;;;3.10;99.90;;;;;;5009327;28;20203;-91
2021/11/17 06:00:59;;;;;;;73.78;37.30;;;3.00;99.90;;;;;;5017663;28;20189;-91
2021/11/17 06:03:42;;;;;;;78.85;39.85;;;2.80;99.90;;;;;;5034587;28;20184;-89
2021/11/17 06:06:08;;;;;;;75.88;41.38;;;2.60;99.90;;;;;;5032964;28;20218;-90
2021/11/17 06:08:33;;;;;;;68.83;40.30;;;2.50;99.90;;;;;;5031893;28;20205;-90
2021/11/17 06:11:01;;;;;;;70.13;40.23;;;2.40;99.90;;;;;;5027436;28;20193;-91
2021/11/17 06:13:28;;;;;;;66.78;39.50;;;2.30;99.90;;;;;;5051317;28;20647;-89
2021/11/17 06:15:55;;;;;;;73.65;42.45;;;2.20;99.90;;;;;;5020688;28;20468;-91
2021/11/17 06:18:24;;;;;;;82.97;41.95;;;2.20;99.90;;;;;;5016974;28;20230;-91
2021/11/17 06:20:50;;;;;;;79.85;46.08;;;2.10;99.90;;;;;;5040723;28;20639;-90
2021/11/17 06:23:26;;;;;;;73.00;45.67;;;2.10;99.90;;;;;;5067609;28;20233;-90
2021/11/17 06:25:55;;;;;;;85.35;49.60;;;2.00;99.90;;;;;;5057069;28;20205;-91
2021/11/17 06:28:24;;;;;;;78.03;50.92;;;2.00;99.90;;;;;;5020256;28;20273;-91
2021/11/17 06:30:52;;;;;;;80.40;49.70;;;2.00;99.90;;;;;;5036720;28;20551;-91
2021/11/17 06:33:19;;;;;;;73.38;46.97;;;2.00;99.90;;;;;;5053964;28;20673;-90
2021/11/17 06:35:44;;;;;;;71.70;45.17;;;2.00;99.90;;;;;;5032370;28;20178;-90
2021/11/17 06:38:11;;;;;;;80.03;45.00;;;2.00;99.90;;;;;;5020287;28;20205;-90
2021/11/17 06:40:43;;;;;;;84.60;46.25;;;2.00;99.90;;;;;;5036515;28;20492;-91
2021/11/17 06:43:10;;;;;;;87.70;48.10;;;2.00;99.90;;;;;;5044439;28;20209;-91
2021/11/17 06:45:43;;;;;;;89.97;48.72;;;2.00;99.90;;;;;;5037640;28;20213;-91
2021/11/17 06:48:10;;;;;;;90.55;46.85;;;2.00;99.90;;;;;;5039494;28;20216;-89
2021/11/17 06:50:39;;;;;;;80.95;46.95;;;2.10;99.90;;;;;;5062122;28;20200;-90
2021/11/17 06:53:06;;;;;;;93.25;47.38;;;2.10;99.90;;;;;;5040197;28;20214;-91
2021/11/17 06:55:31;;;;;;;85.78;47.60;;;2.10;99.90;;;;;;5027629;28;20274;-91
2021/11/17 06:57:58;;;;;;;90.20;47.20;;;2.10;99.90;;;;;;5031666;28;20263;-90
2021/11/17 07:00:26;;;;;;;91.68;48.42;;;2.20;99.90;;;;;;5030597;28;20178;-90
2021/11/17 07:02:52;;;;;;;85.55;45.90;;;2.20;99.90;;;;;;5029582;28;20288;-91
2021/11/17 07:05:19;;;;;;;76.87;44.67;;;2.30;99.90;;;;;;5035227;28;20252;-88
2021/11/17 07:07:45;;;;;;;88.25;49.33;;;2.40;99.90;;;;;;5059880;28;20442;-90
2021/11/17 07:10:13;;;;;;;80.40;45.60;;;2.50;99.90;;;;;;5060641;28;20280;-89
2021/11/17 07:12:40;;;;;;;82.55;45.42;;;2.60;99.90;;;;;;5057953;28;20436;-90
2021/11/17 07:15:07;;;;;;;71.88;45.40;;;2.70;99.90;;;;;;5033458;28;20179;-90
2021/11/17 07:17:33;;;;;;;79.63;47.53;;;2.90;99.90;;;;;;5025056;28;20670;-92
2021/11/17 07:19:58;;;;;;;83.57;46.80;;;2.90;99.90;;;;;;5020525;28;20281;-88
2021/11/17 07:22:24;;;;;;;81.67;45.67;;;3.10;99.90;;;;;;5045185;28;20190;-90
2021/11/17 07:24:50;;;;;;;87.07;50.63;;;3.30;99.90;;;;;;5038095;28;20682;-88
2021/11/17 07:27:22;;;;;;;74.00;45.10;;;3.50;99.90;;;;;;5039117;28;20210;-91
2021/11/17 07:29:51;;;;;;;69.10;42.38;;;3.80;99.90;;;;;;5034022;28;20193;-90
2021/11/17 07:32:17;;;;;;;63.85;42.25;;;4.20;99.90;;;;;;5052808;28;20205;-92
2021/11/17 07:34:42;;;;;;;62.53;42.23;;;4.50;99.90;;;;;;5016783;28;20277;-92
2021/11/17 07:37:08;;;;;;;58.37;38.13;;;4.90;99.90;;;;;;5041192;28;20500;-93
2021/11/17 07:39:34;;;;;;;52.47;36.97;;;5.50;99.90;;;;;;5033553;28;20213;-90
2021/11/17 07:42:00;;;;;;;51.53;36.10;;;6.00;99.90;;;;;;5053977;28;20197;-92
2021/11/17 07:44:26;;;;;;;51.90;35.20;;;6.50;99.90;;;;;;5035064;28;20197;-90
2021/11/17 07:46:54;;;;;;;47.90;34.10;;;7.10;99.90;;;;;;5060037;28;20208;-90
2021/11/17 07:49:21;;;;;;;46.75;35.58;;;7.80;99.90;;;;;;5040879;28;20256;-92
2021/11/17 07:51:51;;;;;;;47.38;34.90;;;8.50;99.90;;;;;;5038765;28;20224;-92
2021/11/17 07:54:18;;;;;;;46.72;33.28;;;9.20;99.90;;;;;;5042823;28;20192;-92
2021/11/17 07:56:45;;;;;;;45.80;33.65;;;9.90;99.90;;;;;;5030717;28;20189;-91
2021/11/17 07:59:14;;;;;;;52.45;36.63;;;10.40;99.90;;;;;;5033911;28;20179;-91
2021/11/17 08:01:45;;;;;;;57.80;38.78;;;11.00;99.90;;;;;;5025764;28;20206;-91
2021/11/17 08:04:15;;;;;;;51.78;36.25;;;11.50;99.90;;;;;;5053667;28;20631;-90
2021/11/17 08:06:42;;;;;;;47.20;36.00;;;12.00;99.90;;;;;;5034884;28;20576;-90
2021/11/17 08:09:09;;;;;;;48.90;35.17;;;12.50;99.90;;;;;;5017254;28;20217;-91
2021/11/17 08:11:35;;;;;;;44.80;34.33;;;13.00;99.90;;;;;;5022916;28;20201;-90
2021/11/17 08:14:01;;;;;;;110.82;47.05;;;13.40;99.90;;;;;;5048347;28;20198;-93
2021/11/17 08:16:27;;;;;;;59.63;36.43;;;13.90;99.90;;;;;;5035039;28;20205;-92
2021/11/17 08:18:52;;;;;;;47.80;34.73;;;14.40;99.90;;;;;;5039381;28;20401;-90
2021/11/17 08:21:18;;;;;;;50.00;36.57;;;14.80;99.90;;;;;;5029161;28;20209;-93
2021/11/17 08:23:45;;;;;;;50.93;34.80;;;15.20;99.90;;;;;;5053295;28;20219;-90
2021/11/17 08:26:12;;;;;;;44.00;33.93;;;15.40;99.90;;;;;;5035867;28;20474;-91
2021/11/17 08:28:39;;;;;;;47.10;37.67;;;15.50;99.90;;;;;;5035886;28;21073;-93
2021/11/17 08:31:05;;;;;;;49.83;34.67;;;15.30;99.90;;;;;;5045750;28;20921;-91
2021/11/17 08:33:31;;;;;;;48.70;33.10;;;15.20;99.90;;;;;;5038295;28;20479;-90
2021/11/17 08:35:58;;;;;;;47.47;34.00;;;14.90;99.90;;;;;;5051253;28;20404;-92
2021/11/17 08:38:24;;;;;;;44.50;32.40;;;14.70;99.90;;;;;;5025864;28;20850;-90
2021/11/17 08:40:55;;;;;;;36.50;29.30;;;14.70;99.90;;;;;;5039948;28;20416;-92
2021/11/17 08:43:21;;;;;;;45.20;30.60;;;14.70;99.90;;;;;;5032161;28;20402;-93
2021/11/17 08:45:48;;;;;;;39.00;30.40;;;14.80;99.90;;;;;;5040291;28;21000;-92
2021/11/17 08:48:16;;;;;;;45.57;31.43;;;15.10;99.90;;;;;;5035281;28;20462;-92
2021/11/17 08:50:42;;;;;;;46.37;34.97;;;15.30;99.90;;;;;;5042002;28;20490;-93
2021/11/17 08:53:10;;;;;;;40.80;33.00;;;15.50;99.90;;;;;;5029997;28;20470;-91
2021/11/17 08:55:41;;;;;;;40.27;29.03;;;15.60;99.90;;;;;;5040643;28;20802;-92
2021/11/17 08:58:07;;;;;;;34.50;27.23;;;15.80;99.90;;;;;;5030947;28;20467;-94
2021/11/17 09:00:33;;;;;;;34.40;26.37;;;15.70;99.90;;;;;;5045648;28;20529;-90
2021/11/17 09:03:01;;;;;;;34.47;24.80;;;15.50;99.90;;;;;;5024959;28;20217;-90
2021/11/17 09:05:31;;;;;;;33.10;27.80;;;15.40;99.90;;;;;;5049418;28;20468;-89
2021/11/17 09:07:58;;;;;;;33.87;25.80;;;15.10;99.90;;;;;;5031844;28;20455;-90
2021/11/17 09:10:28;;;;;;;31.80;24.90;;;14.90;99.90;;;;;;5034043;28;20426;-92
2021/11/17 09:12:54;;;;;;;30.50;23.50;;;14.80;99.90;;;;;;5036241;28;20840;-89
2021/11/17 09:15:23;;;;;;;28.90;22.03;;;14.50;99.90;;;;;;5051983;28;20415;-90
2021/11/17 09:17:49;;;;;;;28.90;23.60;;;14.40;99.90;;;;;;5047805;28;20812;-91
2021/11/17 09:20:18;;;;;;;30.20;22.70;;;14.30;99.90;;;;;;5047023;28;20522;-90
2021/11/17 09:22:45;;;;;;;28.53;22.50;;;14.30;99.90;;;;;;5055576;28;20439;-91
2021/11/17 09:25:12;;;;;;;46.07;30.03;;;14.30;99.90;;;;;;5028874;28;20575;-89
2021/11/17 09:27:39;;;;;;;28.13;22.60;;;14.60;99.90;;;;;;5042187;28;20447;-91
2021/11/17 09:30:07;;;;;;;32.33;22.60;;;14.90;99.90;;;;;;5028743;28;20438;-89
2021/11/17 09:32:33;;;;;;;27.17;20.80;;;15.20;99.90;;;;;;5029636;28;20694;-92
2021/11/17 09:35:06;;;;;;;27.50;20.03;;;15.50;99.90;;;;;;5010696;28;20443;-89
2021/11/17 09:37:32;;;;;;;29.10;21.23;;;15.70;99.90;;;;;;5012245;28;20459;-90
2021/11/17 09:39:58;;;;;;;24.60;18.97;;;15.90;99.90;;;;;;5009281;28;20458;-89
2021/11/17 09:42:25;;;;;;;25.07;18.27;;;16.00;99.90;;;;;;5036134;28;20438;-90
2021/11/17 09:44:53;;;;;;;28.33;19.30;;;16.00;99.90;;;;;;5033284;28;20214;-89
2021/11/17 09:47:22;;;;;;;24.70;19.03;;;16.00;99.90;;;;;;5048323;28;20466;-92
2021/11/17 09:50:11;;;;;;;24.30;18.70;;;16.10;99.90;;;;;;5033802;28;20487;-92
2021/11/17 09:52:50;;;;;;;26.87;20.60;;;16.00;99.90;;;;;;5021516;28;21009;-90
2021/11/17 09:55:20;;;;;;;20.33;17.00;;;15.90;99.90;;;;;;5023855;28;20446;-91
2021/11/17 09:57:58;;;;;;;24.03;17.73;;;15.80;99.90;;;;;;5027309;28;20435;-91
2021/11/17 10:00:41;;;;;;;25.17;20.30;;;15.80;99.90;;;;;;5041263;28;20397;-91
2021/11/17 10:03:16;;;;;;;27.30;19.57;;;15.60;99.90;;;;;;5028328;28;20863;-89
2021/11/17 10:11:22;;;;;;;21.30;15.90;;;15.40;99.90;;;;;;5036443;28;20414;-88
2021/11/17 10:13:59;;;;;;;26.17;18.60;;;15.20;99.90;;;;;;5039531;28;20466;-89
2021/11/17 10:16:26;;;;;;;23.77;17.33;;;15.20;99.90;;;;;;5016896;28;20455;-91
2021/11/17 10:19:34;;;;;;;23.37;18.10;;;15.10;99.90;;;;;;5029679;28;20871;-89
2021/11/17 10:22:11;;;;;;;23.70;18.37;;;14.80;99.90;;;;;;5028236;28;20746;-88
2021/11/17 10:24:40;;;;;;;21.07;16.73;;;14.60;99.90;;;;;;5029385;28;20496;-93
2021/11/17 10:27:07;;;;;;;20.43;16.70;;;14.40;99.90;;;;;;5036539;28;20459;-90
2021/11/17 10:29:43;;;;;;;22.80;17.80;;;14.20;99.90;;;;;;5036665;28;20778;-91
2021/11/17 10:32:31;;;;;;;23.73;18.27;;;14.00;99.90;;;;;;5028862;28;20456;-92
2021/11/17 10:35:18;;;;;;;23.27;18.80;;;13.80;99.90;;;;;;5030299;28;20484;-91
2021/11/17 10:37:58;;;;;;;24.03;18.17;;;13.70;99.90;;;;;;5046661;28;20458;-90
2021/11/17 10:40:27;;;;;;;24.47;16.73;;;13.70;99.90;;;;;;5025503;28;20426;-91
2021/11/17 10:43:05;;;;;;;23.60;18.13;;;13.70;99.90;;;;;;5038539;28;20865;-90
2021/11/17 10:45:38;;;;;;;23.73;18.10;;;13.60;99.90;;;;;;5016861;28;20457;-90
2021/11/17 10:48:17;;;;;;;21.43;18.00;;;13.50;99.90;;;;;;5024373;28;20490;-90
2021/11/17 10:50:43;;;;;;;28.93;20.30;;;13.30;99.90;;;;;;5025090;28;20401;-92
2021/11/17 10:53:25;;;;;;;23.60;18.20;;;13.30;99.90;;;;;;5028760;28;20462;-91
2021/11/17 10:55:54;;;;;;;21.77;15.07;;;13.20;99.90;;;;;;5046720;28;20418;-92
2021/11/17 10:58:24;;;;;;;24.00;18.43;;;13.20;99.90;;;;;;5034443;28;20443;-89
2021/11/17 11:00:59;;;;;;;25.30;19.23;;;13.10;99.90;;;;;;5046050;28;20891;-92
2021/11/17 11:03:29;;;;;;;25.87;19.47;;;13.00;99.90;;;;;;5036453;28;20447;-92
2021/11/17 11:06:23;;;;;;;26.93;18.80;;;13.00;99.90;;;;;;5033943;28;20471;-90
2021/11/17 11:09:08;;;;;;;26.43;19.80;;;12.90;99.90;;;;;;5021918;28;20443;-90
2021/11/17 11:11:39;;;;;;;24.70;19.00;;;12.90;99.90;;;;;;5043648;28;20968;-90
2021/11/17 11:14:12;;;;;;;24.57;18.30;;;13.00;99.90;;;;;;5048018;28;20434;-91
2021/11/17 11:16:47;;;;;;;24.03;18.50;;;13.00;99.90;;;;;;5032306;28;20451;-89
2021/11/17 11:19:13;;;;;;;23.63;17.00;;;13.10;99.90;;;;;;5027928;28;20979;-90
2021/11/17 11:21:38;;;;;;;24.00;17.83;;;13.10;99.90;;;;;;5046738;28;20449;-89
2021/11/17 11:24:13;;;;;;;25.53;19.70;;;13.10;99.90;;;;;;5033124;28;20190;-91
2021/11/17 11:26:57;;;;;;;27.13;18.47;;;13.20;99.90;;;;;;5031257;28;20209;-90
2021/11/17 11:29:28;;;;;;;23.50;17.80;;;13.20;99.90;;;;;;5029333;28;20439;-92
2021/11/17 11:31:54;;;;;;;21.00;16.67;;;13.20;99.90;;;;;;5027248;28;20451;-92
2021/11/17 11:34:25;;;;;;;24.57;18.63;;;13.20;99.90;;;;;;5050212;28;20413;-91
2021/11/17 11:36:51;;;;;;;24.10;18.17;;;13.30;99.90;;;;;;5032550;28;20430;-91
2021/11/17 11:39:17;;;;;;;22.60;16.90;;;13.30;99.90;;;;;;5027683;28;20519;-92
2021/11/17 11:42:04;;;;;;;24.80;18.40;;;13.40;99.90;;;;;;5028564;28;20213;-92
2021/11/17 11:44:42;;;;;;;22.57;17.77;;;13.50;99.90;;;;;;5046485;28;20700;-92
2021/11/17 11:47:11;;;;;;;24.43;18.67;;;13.50;99.90;;;;;;5031754;28;20478;-90
2021/11/17 11:49:50;;;;;;;23.80;18.17;;;13.50;99.90;;;;;;5046203;28;20823;-93
2021/11/17 11:52:26;;;;;;;24.47;17.40;;;13.40;99.90;;;;;;5028025;28;20466;-90
2021/11/17 11:54:54;;;;;;;20.97;16.20;;;13.50;99.90;;;;;;5031066;28;20553;-91
2021/11/17 11:57:41;;;;;;;23.27;17.50;;;13.50;99.90;;;;;;5043366;28;20445;-92
2021/11/17 12:00:28;;;;;;;22.13;18.00;;;13.50;99.90;;;;;;5031709;28;20431;-89
2021/11/17 12:03:00;;;;;;;25.70;19.40;;;13.50;99.90;;;;;;5030707;28;20458;-92
2021/11/17 12:05:28;;;;;;;27.10;20.27;;;13.50;99.90;;;;;;5046647;28;20486;-88
2021/11/17 12:07:58;;;;;;;24.47;17.23;;;13.60;99.90;;;;;;5016437;28;20461;-92
2021/11/17 12:10:34;;;;;;;24.00;18.20;;;13.60;99.90;;;;;;5051998;28;20419;-90
2021/11/17 12:13:14;;;;;;;24.00;18.17;;;13.60;99.90;;;;;;5027652;28;20462;-92
2021/11/17 12:16:14;;;;;;;23.33;18.40;;;13.60;99.90;;;;;;5050159;28;20405;-91
2021/11/17 12:18:52;;;;;;;22.73;18.00;;;13.60;99.90;;;;;;5006076;28;20449;-92
2021/11/17 12:21:41;;;;;;;23.23;16.33;;;13.60;99.90;;;;;;4999574;28;20454;-89
2021/11/17 12:24:18;;;;;;;22.97;15.90;;;13.50;99.90;;;;;;4984465;28;20451;-92
2021/11/17 12:27:12;;;;;;;24.33;17.43;;;13.50;99.90;;;;;;4996164;28;20479;-90
2021/11/17 12:29:44;;;;;;;23.27;17.00;;;13.50;99.90;;;;;;4984918;28;20451;-92
2021/11/17 12:32:28;;;;;;;27.23;20.47;;;13.50;99.90;;;;;;5001448;28;20511;-92
2021/11/17 12:35:09;;;;;;;22.90;17.13;;;13.50;99.90;;;;;;5008189;28;20436;-92
2021/11/17 12:37:50;;;;;;;22.63;17.47;;;13.50;99.90;;;;;;5030503;28;20957;-93
2021/11/17 12:40:16;;;;;;;24.43;18.93;;;13.60;99.90;;;;;;5008142;28;20434;-92
2021/11/17 12:42:57;;;;;;;23.10;17.53;;;13.60;99.90;;;;;;5010117;28;20819;-92
2021/11/17 12:45:33;;;;;;;22.57;17.10;;;13.60;99.90;;;;;;5032336;28;20622;-91
2021/11/17 12:48:01;;;;;;;23.37;18.07;;;13.60;99.90;;;;;;5023399;28;20495;-92
2021/11/17 12:50:40;;;;;;;22.10;18.23;;;13.50;99.90;;;;;;5018544;28;20430;-90
2021/11/17 12:53:14;;;;;;;24.10;18.17;;;13.50;99.90;;;;;;5004920;28;20456;-89
2021/11/17 12:55:56;;;;;;;23.07;17.23;;;13.50;99.90;;;;;;5014447;28;20427;-92
2021/11/17 12:58:39;;;;;;;28.10;19.53;;;13.50;99.90;;;;;;5035692;28;20424;-92
2021/11/17 13:01:33;;;;;;;23.23;16.80;;;13.60;99.90;;;;;;5016022;28;20432;-91
2021/11/17 13:04:14;;;;;;;27.63;18.60;;;13.60;99.90;;;;;;5003587;28;20460;-92
2021/11/17 13:06:40;;;;;;;25.97;18.97;;;13.70;99.90;;;;;;4996687;28;21008;-89
2021/11/17 13:09:23;;;;;;;24.50;17.93;;;13.70;99.90;;;;;;5012290;28;20440;-91
2021/11/17 13:11:53;;;;;;;27.17;20.00;;;13.80;99.90;;;;;;5024674;28;20210;-90
2021/11/17 13:14:37;;;;;;;24.30;19.20;;;13.80;99.90;;;;;;5029875;28;20366;-90
2021/11/17 13:17:13;;;;;;;21.33;17.43;;;13.90;99.90;;;;;;5034945;28;20474;-92
2021/11/17 13:20:20;;;;;;;26.17;18.30;;;13.90;99.90;;;;;;5019556;28;20426;-90
2021/11/17 13:23:15;;;;;;;26.03;18.93;;;14.00;99.90;;;;;;5024638;28;20454;-92
2021/11/17 13:26:14;;;;;;;28.73;19.03;;;14.00;99.90;;;;;;5034167;28;20482;-90
2021/11/17 13:28:50;;;;;;;25.20;18.40;;;14.10;99.90;;;;;;5014720;28;20431;-92
2021/11/17 13:31:32;;;;;;;26.20;18.60;;;14.20;99.90;;;;;;5034205;28;20458;-92
2021/11/17 13:33:59;;;;;;;24.30;17.73;;;14.20;99.90;;;;;;5034763;28;20798;-93
2021/11/17 13:36:50;;;;;;;30.60;19.50;;;14.30;99.90;;;;;;5032764;28;20451;-91
2021/11/17 13:39:20;;;;;;;25.53;19.33;;;14.40;99.90;;;;;;5034399;28;20517;-89
2021/11/17 13:41:48;;;;;;;32.30;21.40;;;14.50;99.90;;;;;;5021623;28;20498;-90
2021/11/17 13:44:18;;;;;;;25.20;18.90;;;14.60;99.90;;;;;;5039729;28;20518;-92
2021/11/17 13:46:59;;;;;;;24.23;18.07;;;14.80;99.90;;;;;;5021686;28;20503;-91
2021/11/17 13:49:26;;;;;;;23.07;17.97;;;14.90;99.90;;;;;;5022431;28;20810;-90
2021/11/17 13:51:52;;;;;;;22.20;18.27;;;15.00;99.90;;;;;;5047258;28;20537;-94
2021/11/17 13:54:18;;;;;;;22.73;18.20;;;15.00;99.90;;;;;;5025094;28;20592;-92
2021/11/17 13:56:44;;;;;;;24.40;19.73;;;15.00;99.90;;;;;;5029429;28;20214;-92
2021/11/17 13:59:10;;;;;;;29.50;20.07;;;15.00;99.90;;;;;;5025401;28;20178;-90
2021/11/17 14:01:36;;;;;;;23.97;18.33;;;14.90;99.90;;;;;;5025839;28;20447;-90
2021/11/17 14:04:02;;;;;;;23.10;18.17;;;14.90;99.90;;;;;;5021607;28;20835;-93
2021/11/17 14:06:28;;;;;;;22.97;18.80;;;15.00;99.90;;;;;;5027275;28;20577;-92
2021/11/17 14:08:53;;;;;;;25.20;19.17;;;15.00;99.90;;;;;;5038293;28;20193;-92
2021/11/17 14:11:19;;;;;;;24.90;18.73;;;15.10;99.90;;;;;;5028647;28;20546;-92
2021/11/17 14:13:47;;;;;;;28.47;21.20;;;15.10;99.90;;;;;;5027243;28;20184;-89
2021/11/17 14:16:16;;;;;;;23.77;18.53;;;15.20;99.90;;;;;;5033455;28;20202;-91
2021/11/17 14:18:42;;;;;;;24.90;19.30;;;15.20;99.90;;;;;;5057666;28;20442;-92
2021/11/17 14:21:09;;;;;;;25.30;20.13;;;15.10;99.90;;;;;;5039943;28;20447;-92
2021/11/17 14:23:36;;;;;;;24.77;18.83;;;15.10;99.90;;;;;;5037570;28;20434;-90
2021/11/17 14:26:07;;;;;;;24.93;18.57;;;14.90;99.90;;;;;;5023437;28;20573;-92
2021/11/17 14:28:38;;;;;;;26.93;19.30;;;14.80;99.90;;;;;;5022002;28;20407;-90
2021/11/17 14:31:11;;;;;;;26.50;19.60;;;14.60;99.90;;;;;;5020962;28;20435;-89
2021/11/17 14:33:37;;;;;;;23.93;18.77;;;14.50;99.90;;;;;;5026010;28;20604;-90
2021/11/17 14:36:07;;;;;;;22.50;18.37;;;14.40;99.90;;;;;;5026706;28;20457;-90
2021/11/17 14:38:33;;;;;;;27.13;21.63;;;14.20;99.90;;;;;;5021089;28;20423;-92
2021/11/17 14:40:59;;;;;;;27.90;21.33;;;14.00;99.90;;;;;;5029272;28;20446;-91
2021/11/17 14:43:25;;;;;;;31.57;23.83;;;13.80;99.90;;;;;;5030296;28;20415;-90
2021/11/17 14:45:51;;;;;;;29.83;23.60;;;13.60;99.90;;;;;;5018506;28;20928;-89
2021/11/17 14:48:18;;;;;;;29.83;22.47;;;13.50;99.90;;;;;;5028460;28;20469;-90
2021/11/17 14:50:45;;;;;;;39.47;31.63;;;13.30;99.90;;;;;;5028821;28;20438;-92
2021/11/17 14:53:12;;;;;;;43.63;35.00;;;13.10;99.90;;;;;;5042928;28;20504;-89
2021/11/17 14:55:38;;;;;;;45.77;37.80;;;13.00;99.90;;;;;;5043294;28;20765;-90
2021/11/17 14:58:04;;;;;;;40.80;32.80;;;12.80;99.90;;;;;;5023623;28;20494;-89
2021/11/17 15:00:34;;;;;;;30.60;26.07;;;12.70;99.90;;;;;;5025184;28;20186;-90
2021/11/17 15:03:00;;;;;;;29.43;24.40;;;12.60;99.90;;;;;;5043422;28;20450;-92
2021/11/17 15:05:27;;;;;;;35.47;25.63;;;12.50;99.90;;;;;;5023226;28;20914;-92
2021/11/17 15:07:54;;;;;;;28.07;22.90;;;12.40;99.90;;;;;;5037095;28;20201;-92
2021/11/17 15:10:21;;;;;;;25.87;18.80;;;12.30;99.90;;;;;;5044333;28;20892;-90
2021/11/17 15:12:47;;;;;;;30.37;21.90;;;12.20;99.90;;;;;;5041784;28;20447;-90
2021/11/17 15:15:17;;;;;;;26.67;21.50;;;12.10;99.90;;;;;;5021801;28;20434;-90
2021/11/17 15:17:43;;;;;;;34.53;24.93;;;12.10;99.90;;;;;;5019972;28;20467;-90
2021/11/17 15:20:11;;;;;;;32.10;23.93;;;12.00;99.90;;;;;;5044961;28;20441;-91
2021/11/17 15:22:40;;;;;;;37.57;26.50;;;11.90;99.90;;;;;;5026256;28;20496;-90
2021/11/17 15:25:31;;;;;;;35.00;23.87;;;11.80;99.90;;;;;;5028059;28;20486;-89
2021/11/17 15:28:20;;;;;;;39.47;24.30;;;11.70;99.90;;;;;;5029723;28;20806;-91
2021/11/17 15:30:53;;;;;;;31.40;21.85;;;11.60;99.90;;;;;;5027133;28;20438;-92
2021/11/17 15:33:19;;;;;;;35.80;23.88;;;11.40;99.90;;;;;;5036210;28;20244;-90
2021/11/17 15:35:46;;;;;;;35.97;23.80;;;11.30;99.90;;;;;;5048602;28;20219;-91
2021/11/17 15:38:12;;;;;;;34.00;24.08;;;11.20;99.90;;;;;;5033620;28;20450;-90
2021/11/17 15:40:43;;;;;;;36.50;25.23;;;11.10;99.90;;;;;;5046855;28;20213;-90
2021/11/17 15:43:09;;;;;;;36.38;26.25;;;11.00;99.90;;;;;;5019289;28;20217;-90
2021/11/17 15:45:35;;;;;;;34.55;24.60;;;10.90;99.90;;;;;;5029185;28;20229;-92